Time;durP1;ratioP1;P1;durP2;ratioP2;P2;SDS_P1;SDS_P2;PMS_P1;PMS_P2;Temp;Humidity;BMP_temperature;BMP_pressure;BME280_temperature;BME280_humidity;BME280_pressure;Samples;Min_cycle;Max_cycle;Signal;HPM_P1;HPM_P2
2021/07/26 00:01:20;;;;;;;0.95;0.50;;;18.50;54.70;;;;;;5093439;28;20107;-64
2021/07/26 00:03:47;;;;;;;0.73;0.47;;;18.60;54.40;;;;;;5111323;28;20027;-63
2021/07/26 00:06:14;;;;;;;1.90;0.50;;;18.60;54.30;;;;;;5110852;28;20040;-56
2021/07/26 00:08:42;;;;;;;0.82;0.52;;;18.70;54.00;;;;;;5111520;28;20049;-61
2021/07/26 00:11:11;;;;;;;1.63;0.70;;;18.80;53.80;;;;;;5111436;28;20513;-61
2021/07/26 00:13:39;;;;;;;1.77;0.52;;;18.70;53.80;;;;;;5092555;28;20085;-55
2021/07/26 00:16:08;;;;;;;1.98;0.65;;;18.60;53.70;;;;;;5111154;28;20019;-50
2021/07/26 00:18:35;;;;;;;0.93;0.45;;;18.70;53.60;;;;;;5111138;28;20500;-54
2021/07/26 00:21:03;;;;;;;0.80;0.52;;;18.70;53.90;;;;;;5110979;28;20466;-53
2021/07/26 00:23:31;;;;;;;0.68;0.40;;;18.60;54.20;;;;;;5110667;28;20038;-56
2021/07/26 00:25:58;;;;;;;1.27;0.63;;;18.60;54.10;;;;;;5110570;28;20031;-53
2021/07/26 00:28:25;;;;;;;1.30;0.60;;;18.60;54.10;;;;;;5110696;28;20049;-59
2021/07/26 00:30:53;;;;;;;1.40;0.57;;;18.60;54.10;;;;;;5110453;28;20102;-58
2021/07/26 00:36:29;;;;;;;3.20;0.98;;;18.50;54.60;;;;;;5084116;28;20405;-56
2021/07/26 00:38:58;;;;;;;0.80;0.60;;;18.50;54.50;;;;;;5102806;28;20041;-60
2021/07/26 00:41:25;;;;;;;2.25;0.70;;;18.50;54.60;;;;;;5096051;28;20387;-58
2021/07/26 00:43:53;;;;;;;0.85;0.47;;;18.60;54.40;;;;;;5084461;28;20037;-51
2021/07/26 00:46:20;;;;;;;1.13;0.70;;;18.60;54.70;;;;;;5083601;28;20078;-54
2021/07/26 00:48:57;;;;;;;1.02;0.40;;;18.70;54.70;;;;;;5095290;28;20023;-56
2021/07/26 00:51:27;;;;;;;0.75;0.45;;;18.70;54.80;;;;;;5096514;28;20168;-58
2021/07/26 00:53:55;;;;;;;2.20;0.68;;;18.60;54.30;;;;;;5103117;28;20031;-52
2021/07/26 00:56:26;;;;;;;2.20;0.70;;;18.50;54.30;;;;;;5098589;28;20435;-58
2021/07/26 00:58:53;;;;;;;0.90;0.55;;;18.40;54.80;;;;;;5081162;28;20058;-55
2021/07/26 01:01:21;;;;;;;0.95;0.40;;;18.40;55.00;;;;;;5101551;28;20491;-61
2021/07/26 01:03:48;;;;;;;1.10;0.43;;;18.30;55.30;;;;;;5094850;28;20024;-58
2021/07/26 01:06:16;;;;;;;1.42;0.47;;;18.20;55.60;;;;;;5103799;28;20028;-57
2021/07/26 01:08:45;;;;;;;1.15;0.45;;;18.10;55.90;;;;;;5077390;28;20174;-54
2021/07/26 01:11:12;;;;;;;1.50;0.60;;;18.00;56.00;;;;;;5096555;28;20397;-54
2021/07/26 01:13:39;;;;;;;0.73;0.52;;;18.00;56.30;;;;;;5087102;28;20031;-58
2021/07/26 01:16:07;;;;;;;1.17;0.57;;;17.90;56.60;;;;;;5098586;28;20453;-53
2021/07/26 01:18:36;;;;;;;1.35;0.40;;;17.90;56.60;;;;;;5094931;28;20070;-62
2021/07/26 01:21:08;;;;;;;0.85;0.50;;;17.90;57.20;;;;;;5100759;28;20035;-56
2021/07/26 01:23:38;;;;;;;0.43;0.32;;;17.80;57.00;;;;;;5097159;28;20033;-60
2021/07/26 01:26:08;;;;;;;2.20;0.70;;;17.70;56.90;;;;;;5094979;28;20169;-61
2021/07/26 01:28:43;;;;;;;3.25;0.40;;;17.70;57.30;;;;;;5104508;28;20062;-57
2021/07/26 01:31:11;;;;;;;0.30;0.22;;;17.70;57.50;;;;;;5089585;28;20082;-56
2021/07/26 01:33:40;;;;;;;1.55;0.57;;;17.60;57.60;;;;;;5088920;28;20020;-61
2021/07/26 01:36:09;;;;;;;1.23;0.30;;;17.60;57.90;;;;;;5088981;28;20028;-63
2021/07/26 01:38:37;;;;;;;2.42;0.55;;;17.50;58.00;;;;;;5086620;28;20047;-57
2021/07/26 01:41:06;;;;;;;0.65;0.30;;;17.50;58.10;;;;;;5104246;28;20035;-61
2021/07/26 01:43:39;;;;;;;2.03;0.50;;;17.50;58.10;;;;;;5104093;28;20027;-57
2021/07/26 01:46:48;;;;;;;1.23;0.70;;;17.50;58.20;;;;;;5104129;28;20027;-54
2021/07/26 01:49:38;;;;;;;0.90;0.60;;;17.40;58.70;;;;;;5001785;28;20151;-52
2021/07/26 01:52:06;;;;;;;1.48;0.63;;;17.40;58.90;;;;;;5001969;28;20034;-59
2021/07/26 01:54:37;;;;;;;0.45;0.40;;;17.40;59.00;;;;;;5070466;28;20067;-57
2021/07/26 01:57:05;;;;;;;1.65;0.50;;;17.40;59.40;;;;;;5104832;28;20554;-50
2021/07/26 01:59:32;;;;;;;0.65;0.43;;;17.60;60.40;;;;;;5104721;28;20035;-53
2021/07/26 02:02:00;;;;;;;1.52;0.40;;;17.80;60.00;;;;;;5104672;28;20583;-53
2021/07/26 02:04:27;;;;;;;0.85;0.35;;;18.00;58.80;;;;;;5104073;28;20032;-56
2021/07/26 02:06:55;;;;;;;5.20;0.65;;;18.20;58.50;;;;;;5104899;28;20028;-57
2021/07/26 02:09:22;;;;;;;1.85;0.60;;;18.40;57.50;;;;;;5108115;28;20059;-56
2021/07/26 02:11:51;;;;;;;1.02;0.40;;;18.60;57.40;;;;;;5108894;28;20067;-60
2021/07/26 02:14:19;;;;;;;0.68;0.47;;;18.90;56.90;;;;;;5109924;28;20441;-53
2021/07/26 02:16:52;;;;;;;0.98;0.50;;;19.10;56.30;;;;;;5109073;28;20024;-59
2021/07/26 02:19:20;;;;;;;1.40;0.50;;;19.30;56.00;;;;;;5090094;28;20887;-65
2021/07/26 02:21:51;;;;;;;3.97;0.40;;;19.60;55.40;;;;;;5108750;28;20034;-63
2021/07/26 02:24:20;;;;;;;0.77;0.52;;;19.90;54.70;;;;;;5108534;28;20030;-64
2021/07/26 02:26:47;;;;;;;2.67;0.30;;;20.10;53.40;;;;;;5108493;28;20105;-55
2021/07/26 02:29:15;;;;;;;3.65;0.77;;;20.20;53.30;;;;;;5108167;28;20060;-61
2021/07/26 02:31:43;;;;;;;2.45;0.68;;;20.30;53.30;;;;;;5109333;28;20027;-60
2021/07/26 02:34:11;;;;;;;5.20;0.80;;;20.50;52.80;;;;;;5107820;28;20041;-57
2021/07/26 02:36:38;;;;;;;0.57;0.20;;;20.50;51.80;;;;;;5108511;28;20789;-60
2021/07/26 02:39:06;;;;;;;4.68;0.40;;;20.50;52.00;;;;;;5107703;28;20092;-59
2021/07/26 02:41:34;;;;;;;0.25;0.25;;;20.30;52.10;;;;;;5108563;28;20375;-57
2021/07/26 02:44:01;;;;;;;1.30;0.50;;;20.20;52.70;;;;;;5107628;28;20016;-59
2021/07/26 02:46:29;;;;;;;0.68;0.30;;;20.20;53.10;;;;;;5108326;28;20443;-56
2021/07/26 02:48:59;;;;;;;3.03;0.40;;;20.00;53.00;;;;;;5107546;28;20081;-63
2021/07/26 02:51:26;;;;;;;2.60;0.43;;;19.80;53.60;;;;;;5107868;28;20047;-59
2021/07/26 02:53:54;;;;;;;0.75;0.38;;;19.70;53.80;;;;;;5107819;28;20072;-60
2021/07/26 02:56:21;;;;;;;6.28;0.40;;;19.50;54.40;;;;;;5108329;28;20690;-62
2021/07/26 02:58:48;;;;;;;4.35;0.40;;;19.30;54.90;;;;;;5108115;28;20055;-61
2021/07/26 03:01:18;;;;;;;3.92;0.30;;;19.20;55.20;;;;;;5108020;28;20023;-63
2021/07/26 03:03:45;;;;;;;2.25;0.50;;;19.10;56.00;;;;;;5107634;28;20051;-57
2021/07/26 03:06:21;;;;;;;2.15;0.40;;;19.00;56.50;;;;;;5107641;28;20028;-58
2021/07/26 03:08:48;;;;;;;1.58;0.32;;;18.90;56.50;;;;;;5107056;28;20114;-58
2021/07/26 03:11:16;;;;;;;10.43;0.70;;;18.80;56.90;;;;;;5107789;28;20691;-61
2021/07/26 03:13:45;;;;;;;0.75;0.38;;;18.70;57.30;;;;;;5107232;28;20035;-60
2021/07/26 03:16:14;;;;;;;2.65;0.75;;;18.70;57.40;;;;;;5107257;28;20070;-61
2021/07/26 03:18:42;;;;;;;0.40;0.30;;;18.60;58.40;;;;;;5106988;28;20049;-60
2021/07/26 03:21:14;;;;;;;0.25;0.20;;;18.60;58.00;;;;;;5106932;28;21128;-59
2021/07/26 03:23:41;;;;;;;;;;;18.60;58.20;;;;;;5107243;28;20045;-56
2021/07/26 03:26:08;;;;;;;0.22;0.22;;;18.50;58.30;;;;;;5105218;28;19908;-60
2021/07/26 03:28:36;;;;;;;0.98;0.28;;;18.50;59.00;;;;;;5091229;28;20083;-59
2021/07/26 03:31:03;;;;;;;0.77;0.20;;;18.40;58.90;;;;;;5091722;28;20028;-63
2021/07/26 03:33:30;;;;;;;1.85;0.60;;;18.40;59.30;;;;;;5073974;28;20521;-61
2021/07/26 03:35:58;;;;;;;1.20;0.47;;;18.40;59.10;;;;;;5073635;28;20647;-59
2021/07/26 03:38:26;;;;;;;0.88;0.47;;;18.30;58.50;;;;;;5091118;28;20028;-59
2021/07/26 03:40:53;;;;;;;1.98;0.40;;;18.30;58.80;;;;;;5091629;28;20032;-56
2021/07/26 03:43:21;;;;;;;0.75;0.30;;;18.30;59.30;;;;;;5091363;28;20069;-60
2021/07/26 03:45:48;;;;;;;2.13;0.40;;;18.20;58.90;;;;;;5072903;28;20060;-60
2021/07/26 03:48:16;;;;;;;6.60;0.75;;;18.20;58.60;;;;;;5086419;28;20115;-54
2021/07/26 03:50:43;;;;;;;0.57;0.40;;;18.30;59.30;;;;;;5097648;28;20024;-59
2021/07/26 03:53:10;;;;;;;0.70;0.35;;;18.20;59.30;;;;;;5098864;28;20032;-59
2021/07/26 03:55:38;;;;;;;1.42;0.57;;;18.20;59.60;;;;;;5101614;28;20019;-56
2021/07/26 03:58:05;;;;;;;1.38;0.60;;;18.10;60.20;;;;;;5103402;28;20065;-59
2021/07/26 04:00:33;;;;;;;2.53;0.60;;;18.20;59.80;;;;;;5097625;28;20110;-51
2021/07/26 04:05:44;;;;;;;0.73;0.50;;;18.20;60.10;;;;;;5097467;28;21238;-54
2021/07/26 04:08:19;;;;;;;1.10;0.60;;;18.20;59.50;;;;;;5097623;28;20108;-56
2021/07/26 04:10:50;;;;;;;0.60;0.55;;;18.20;59.90;;;;;;5101505;28;20088;-60
2021/07/26 04:13:22;;;;;;;0.60;0.50;;;18.20;60.00;;;;;;5104667;27;20028;-55
2021/07/26 04:15:51;;;;;;;2.13;0.63;;;18.20;59.60;;;;;;5103995;28;20498;-59
2021/07/26 04:18:18;;;;;;;1.77;0.70;;;18.20;59.60;;;;;;5102196;28;20105;-56
2021/07/26 04:20:46;;;;;;;1.27;0.57;;;18.30;60.70;;;;;;5098005;28;20031;-56
2021/07/26 04:23:13;;;;;;;2.20;0.43;;;18.30;59.80;;;;;;5081913;28;20442;-51
2021/07/26 04:25:40;;;;;;;1.20;0.70;;;18.30;60.20;;;;;;5101643;28;20028;-57
2021/07/26 04:28:08;;;;;;;1.45;0.63;;;18.30;59.90;;;;;;5101939;28;20126;-55
2021/07/26 04:30:35;;;;;;;1.20;0.57;;;18.40;59.50;;;;;;5098541;28;20049;-53
2021/07/26 04:33:03;;;;;;;0.77;0.60;;;18.40;59.30;;;;;;5103058;28;20031;-52
2021/07/26 04:35:30;;;;;;;1.50;0.40;;;18.50;58.90;;;;;;5078588;28;20024;-56
2021/07/26 04:37:58;;;;;;;1.10;0.55;;;18.50;58.90;;;;;;5097562;28;20019;-59
2021/07/26 04:40:25;;;;;;;0.77;0.77;;;18.50;58.70;;;;;;5092736;28;20047;-60
2021/07/26 04:42:55;;;;;;;3.72;0.60;;;18.50;58.70;;;;;;5100935;28;20031;-55
2021/07/26 04:45:22;;;;;;;1.63;0.50;;;18.50;58.40;;;;;;5096559;28;20031;-54
2021/07/26 04:47:50;;;;;;;2.35;0.43;;;18.50;58.30;;;;;;5097807;28;20039;-55
2021/07/26 04:50:17;;;;;;;3.25;0.60;;;18.50;59.00;;;;;;5108630;28;20034;-53
2021/07/26 04:52:45;;;;;;;0.45;0.43;;;18.50;59.10;;;;;;5109704;28;20129;-56
2021/07/26 04:55:13;;;;;;;0.55;0.35;;;18.50;59.40;;;;;;5108887;28;20114;-61
2021/07/26 04:57:40;;;;;;;0.68;0.35;;;18.40;59.00;;;;;;5108492;28;20164;-62
2021/07/26 05:00:09;;;;;;;1.60;0.70;;;18.40;59.30;;;;;;5109724;28;20063;-62
2021/07/26 05:02:38;;;;;;;1.35;0.75;;;18.40;59.80;;;;;;5110124;28;20104;-59
2021/07/26 05:05:06;;;;;;;1.98;0.85;;;18.50;59.60;;;;;;5109766;28;20039;-58
2021/07/26 05:07:33;;;;;;;1.00;0.60;;;18.60;58.40;;;;;;5110131;28;20482;-59
2021/07/26 05:10:00;;;;;;;0.60;0.38;;;18.70;58.40;;;;;;5109775;28;20053;-60
2021/07/26 05:12:28;;;;;;;0.43;0.40;;;18.60;59.00;;;;;;5091535;28;20485;-61
2021/07/26 05:14:55;;;;;;;0.88;0.50;;;18.60;57.80;;;;;;5109778;28;20028;-62
2021/07/26 05:17:28;;;;;;;1.15;0.60;;;18.70;59.10;;;;;;5108852;28;20106;-51
2021/07/26 05:20:22;;;;;;;3.20;0.70;;;18.70;58.80;;;;;;5109771;28;20063;-54
2021/07/26 05:22:53;;;;;;;0.43;0.30;;;18.70;58.60;;;;;;5106210;28;20394;-59
2021/07/26 05:25:24;;;;;;;0.60;0.30;;;18.60;58.90;;;;;;5110114;28;20450;-57
2021/07/26 05:27:52;;;;;;;0.87;0.50;;;18.60;57.70;;;;;;5109402;28;20059;-58
2021/07/26 05:30:22;;;;;;;2.65;0.30;;;18.50;58.40;;;;;;5110022;28;20106;-62
2021/07/26 05:32:49;;;;;;;0.82;0.40;;;18.50;58.70;;;;;;5109665;28;20063;-61
2021/07/26 05:35:32;;;;;;;0.70;0.30;;;18.40;58.60;;;;;;5109349;28;20023;-56
2021/07/26 05:38:06;;;;;;;1.90;0.30;;;18.30;58.10;;;;;;5091603;28;20106;-62
2021/07/26 05:40:44;;;;;;;0.50;0.25;;;18.30;59.60;;;;;;5091151;28;20108;-58
2021/07/26 05:43:14;;;;;;;1.13;0.50;;;18.20;59.60;;;;;;5113730;28;20482;-52
2021/07/26 05:45:47;;;;;;;0.75;0.22;;;18.10;59.80;;;;;;5116202;28;20039;-59
2021/07/26 05:48:15;;;;;;;1.35;0.32;;;18.10;59.50;;;;;;5116232;28;20039;-57
2021/07/26 05:51:04;;;;;;;;;;;;;;;;;;;;;
2021/07/26 05:53:38;;;;;;;1.88;0.60;;;17.90;60.30;;;;;;5111471;28;20077;-55
2021/07/26 05:56:15;;;;;;;1.02;0.38;;;17.90;60.90;;;;;;5097277;28;20020;-58
2021/07/26 05:58:46;;;;;;;0.75;0.40;;;17.80;59.60;;;;;;5116389;28;20034;-61
2021/07/26 06:03:47;;;;;;;1.05;0.40;;;17.70;60.90;;;;;;5116639;28;20338;-56
2021/07/26 06:06:15;;;;;;;0.70;0.45;;;17.70;61.70;;;;;;5116586;28;20435;-60
2021/07/26 06:08:51;;;;;;;0.73;0.40;;;17.70;60.70;;;;;;5116366;28;20024;-59
2021/07/26 06:11:18;;;;;;;1.33;0.60;;;17.60;60.00;;;;;;5116180;28;20019;-60
2021/07/26 06:13:45;;;;;;;0.75;0.43;;;17.60;60.60;;;;;;5116755;28;20104;-59
2021/07/26 06:16:18;;;;;;;0.82;0.30;;;17.60;61.50;;;;;;5114428;28;20036;-62
2021/07/26 06:18:46;;;;;;;0.32;0.20;;;17.60;61.50;;;;;;5115634;27;20397;-62
2021/07/26 06:21:33;;;;;;;0.45;0.30;;;17.50;61.70;;;;;;5115762;27;20034;-60
2021/07/26 06:24:06;;;;;;;1.33;0.40;;;17.50;61.50;;;;;;5106605;28;20748;-52
2021/07/26 06:26:33;;;;;;;0.82;0.30;;;17.40;62.00;;;;;;5100129;27;20424;-53
2021/07/26 06:29:19;;;;;;;0.52;0.22;;;17.40;62.20;;;;;;5108043;28;20104;-52
2021/07/26 06:31:46;;;;;;;0.70;0.28;;;17.40;61.40;;;;;;5097737;27;20052;-51
2021/07/26 06:34:13;;;;;;;0.80;0.45;;;17.40;61.90;;;;;;5105754;28;20557;-63
2021/07/26 06:36:44;;;;;;;1.30;0.57;;;17.40;61.80;;;;;;5106443;28;20040;-57
2021/07/26 06:39:12;;;;;;;0.98;0.30;;;17.40;62.20;;;;;;5105223;28;20039;-58
2021/07/26 06:41:39;;;;;;;0.63;0.30;;;17.30;61.90;;;;;;5088156;28;20032;-57
2021/07/26 06:44:16;;;;;;;1.35;0.32;;;17.30;61.60;;;;;;5108288;27;20042;-52
2021/07/26 06:46:43;;;;;;;2.83;0.45;;;17.30;62.80;;;;;;5103315;28;20484;-52
2021/07/26 06:49:17;;;;;;;1.48;0.30;;;17.30;62.30;;;;;;5103749;27;20150;-60
2021/07/26 06:51:48;;;;;;;0.40;0.28;;;17.30;61.20;;;;;;5107261;28;20036;-64
2021/07/26 06:54:19;;;;;;;1.03;0.30;;;17.30;62.70;;;;;;5095726;27;20050;-50
2021/07/26 06:56:46;;;;;;;5.90;0.38;;;17.30;62.60;;;;;;5108213;28;20126;-57
2021/07/26 06:59:14;;;;;;;0.43;0.30;;;17.20;62.40;;;;;;5070896;28;20036;-55
2021/07/26 07:01:42;;;;;;;0.60;0.40;;;17.20;63.20;;;;;;5069259;28;20032;-51
2021/07/26 07:04:21;;;;;;;0.30;0.25;;;17.10;63.20;;;;;;5086498;28;20051;-55
2021/07/26 07:07:44;;;;;;;0.90;0.40;;;17.10;63.30;;;;;;5088165;28;20051;-57
2021/07/26 07:09:54;;;;;;;0.60;0.30;;;17.10;62.50;;;;;;5046206;28;20529;-52
2021/07/26 07:12:41;;;;;;;;;;;;;;;;;;;;;
2021/07/26 07:15:18;;;;;;;6.68;0.57;;;17.00;62.90;;;;;;5075979;28;20141;-51
2021/07/26 07:17:52;;;;;;;0.52;0.20;;;17.00;63.40;;;;;;5086910;28;20027;-56
2021/07/26 07:20:34;;;;;;;0.85;0.40;;;17.00;62.50;;;;;;5087003;28;20502;-57
2021/07/26 07:23:01;;;;;;;1.17;0.43;;;17.00;63.60;;;;;;5086377;28;20040;-51
2021/07/26 07:25:35;;;;;;;1.98;0.47;;;17.00;63.80;;;;;;5085539;28;20112;-57
2021/07/26 07:28:03;;;;;;;1.75;0.45;;;16.90;63.50;;;;;;5086180;28;20115;-49
2021/07/26 07:30:30;;;;;;;0.32;0.20;;;17.00;63.90;;;;;;5086562;28;20431;-56
2021/07/26 07:33:00;;;;;;;0.32;0.20;;;16.90;63.90;;;;;;5086281;28;20048;-60
2021/07/26 07:35:29;;;;;;;1.17;0.25;;;16.90;63.60;;;;;;5087154;28;20020;-59
2021/07/26 07:38:01;;;;;;;0.22;0.20;;;16.80;64.10;;;;;;5086889;28;20099;-62
2021/07/26 07:40:32;;;;;;;2.15;0.40;;;16.80;63.00;;;;;;5082262;28;20519;-61
2021/07/26 07:42:59;;;;;;;2.28;0.70;;;16.80;64.50;;;;;;5086869;28;20114;-63
2021/07/26 07:45:31;;;;;;;0.98;0.38;;;16.80;64.00;;;;;;5086932;28;20042;-61
2021/07/26 07:47:59;;;;;;;0.77;0.50;;;16.80;64.20;;;;;;5068561;28;20133;-60
2021/07/26 07:50:32;;;;;;;0.45;0.30;;;16.80;63.80;;;;;;5086068;28;20032;-60
2021/07/26 07:53:03;;;;;;;0.60;0.40;;;16.80;64.00;;;;;;5085906;28;20040;-60
2021/07/26 07:55:33;;;;;;;1.13;0.50;;;16.80;64.20;;;;;;5085949;28;20024;-60
2021/07/26 07:58:05;;;;;;;2.55;0.60;;;16.80;64.00;;;;;;5085864;28;20775;-62
2021/07/26 08:00:35;;;;;;;0.30;0.30;;;16.80;64.00;;;;;;5086235;28;20185;-54
2021/07/26 08:03:03;;;;;;;1.40;0.55;;;16.80;64.10;;;;;;5086020;28;20620;-61
2021/07/26 08:05:31;;;;;;;0.77;0.50;;;16.80;64.20;;;;;;5085697;28;20028;-57
2021/07/26 08:07:59;;;;;;;1.27;0.45;;;16.80;64.00;;;;;;5096375;28;20774;-63
2021/07/26 08:10:26;;;;;;;0.90;0.55;;;16.80;64.30;;;;;;5107044;28;20034;-55
2021/07/26 08:13:16;;;;;;;0.65;0.30;;;16.80;64.30;;;;;;5106379;28;20024;-56
2021/07/26 08:16:31;;;;;;;;;;;;;;;;;;;;;
2021/07/26 08:18:59;;;;;;;0.52;0.40;;;16.70;63.90;;;;;;5106606;28;20032;-57
2021/07/26 08:24:30;;;;;;;0.60;0.45;;;16.60;64.30;;;;;;5083665;28;20047;-61
2021/07/26 08:26:57;;;;;;;0.40;0.20;;;16.60;64.30;;;;;;5106007;28;20130;-60
2021/07/26 08:29:24;;;;;;;1.02;0.40;;;16.60;64.60;;;;;;5106141;28;20741;-60
2021/07/26 08:31:55;;;;;;;0.90;0.55;;;16.60;64.40;;;;;;5105724;28;20023;-60
2021/07/26 08:37:45;;;;;;;1.00;0.47;;;16.60;64.80;;;;;;5100867;28;20032;-55
2021/07/26 08:40:13;;;;;;;0.82;0.50;;;16.60;64.70;;;;;;5102072;28;20142;-58
2021/07/26 08:42:41;;;;;;;1.25;0.40;;;16.60;64.80;;;;;;5105994;28;20019;-55
2021/07/26 08:45:10;;;;;;;1.10;0.50;;;16.50;65.00;;;;;;5090028;28;20027;-53
2021/07/26 08:47:42;;;;;;;2.30;0.43;;;16.50;65.10;;;;;;5085921;28;20107;-54
2021/07/26 08:50:10;;;;;;;;;;;16.50;64.90;;;;;;5100476;28;20046;-57
2021/07/26 08:52:43;;;;;;;0.40;0.30;;;16.50;65.00;;;;;;5101339;28;19974;-64
2021/07/26 08:55:19;;;;;;;0.65;0.63;;;16.50;65.00;;;;;;5107417;28;20027;-58
2021/07/26 08:57:48;;;;;;;3.30;0.50;;;16.40;65.10;;;;;;5110676;28;20797;-55
2021/07/26 09:00:19;;;;;;;0.73;0.68;;;16.50;65.30;;;;;;5110785;28;20126;-56
2021/07/26 09:02:46;;;;;;;2.63;0.50;;;16.40;65.20;;;;;;5110473;28;20665;-61
2021/07/26 09:05:14;;;;;;;1.08;0.60;;;16.40;65.20;;;;;;5110950;28;20063;-62
2021/07/26 09:07:43;;;;;;;0.73;0.50;;;16.40;65.20;;;;;;5110886;28;20023;-58
2021/07/26 09:10:18;;;;;;;2.70;0.65;;;16.40;65.10;;;;;;5110698;28;20027;-57
2021/07/26 09:12:48;;;;;;;3.05;1.42;;;16.40;65.60;;;;;;5090664;28;20031;-58
2021/07/26 09:15:36;;;;;;;13.73;5.00;;;16.40;65.60;;;;;;5094635;28;20666;-56
2021/07/26 09:18:06;;;;;;;17.42;9.82;;;16.40;65.60;;;;;;5092843;28;20024;-60
2021/07/26 09:20:35;;;;;;;25.48;14.38;;;16.40;65.60;;;;;;5097264;28;20045;-58
2021/07/26 09:23:13;;;;;;;40.63;19.77;;;16.40;65.60;;;;;;5096935;28;20110;-56
2021/07/26 09:25:42;;;;;;;36.70;20.95;;;16.40;65.70;;;;;;5093051;28;20027;-56
2021/07/26 09:28:22;;;;;;;46.53;25.10;;;16.40;65.50;;;;;;5103451;28;20048;-60
2021/07/26 09:30:54;;;;;;;52.38;26.50;;;16.50;65.70;;;;;;5093972;28;20028;-57
2021/07/26 09:33:24;;;;;;;;;;;16.50;65.80;;;;;;5096562;28;20055;-59
2021/07/26 09:36:10;;;;;;;56.92;29.33;;;16.50;65.90;;;;;;5100911;28;19962;-59
2021/07/26 09:38:37;;;;;;;61.53;31.42;;;16.50;65.70;;;;;;5102207;28;20078;-60
2021/07/26 09:41:07;;;;;;;59.72;31.05;;;16.50;65.90;;;;;;5099794;28;20109;-62
2021/07/26 09:43:34;;;;;;;62.92;33.10;;;16.50;65.80;;;;;;5098206;28;20053;-59
2021/07/26 09:46:02;;;;;;;65.65;34.25;;;16.50;65.80;;;;;;5097825;28;20034;-58
2021/07/26 09:48:32;;;;;;;67.88;35.85;;;16.50;65.70;;;;;;5098101;28;20374;-58
2021/07/26 09:51:03;;;;;;;72.25;38.22;;;16.50;65.80;;;;;;5100001;28;20774;-55
2021/07/26 09:53:30;;;;;;;61.20;36.95;;;16.50;65.80;;;;;;5100854;28;20028;-54
2021/07/26 09:55:59;;;;;;;68.03;37.78;;;16.50;65.80;;;;;;5097543;28;20040;-54
2021/07/26 09:58:38;;;;;;;82.38;43.92;;;16.50;65.80;;;;;;5098930;28;20012;-51
2021/07/26 10:01:15;;;;;;;79.63;40.08;;;16.40;65.90;;;;;;5106571;28;20039;-49
2021/07/26 10:03:43;;;;;;;68.00;39.45;;;16.50;66.00;;;;;;5098075;28;20027;-56
2021/07/26 10:06:13;;;;;;;71.10;38.33;;;16.50;65.80;;;;;;5092701;28;20044;-52
2021/07/26 10:08:43;;;;;;;66.60;37.92;;;16.40;65.80;;;;;;5096480;28;20438;-55
2021/07/26 10:11:11;;;;;;;73.75;38.95;;;16.40;65.60;;;;;;5096547;28;20038;-56
2021/07/26 10:13:44;;;;;;;72.55;39.20;;;16.40;65.90;;;;;;5102380;28;20110;-54
2021/07/26 10:16:19;;;;;;;67.05;35.35;;;16.40;66.00;;;;;;5097993;28;20019;-57
2021/07/26 10:18:52;;;;;;;73.28;37.97;;;16.40;65.80;;;;;;5092043;28;20024;-54
2021/07/26 10:21:24;;;;;;;58.65;35.60;;;16.40;66.00;;;;;;5092318;28;20034;-55
2021/07/26 10:23:57;;;;;;;66.00;37.47;;;16.40;66.10;;;;;;5075431;28;20051;-52
2021/07/26 10:26:43;;;;;;;66.18;37.22;;;16.40;66.10;;;;;;5091878;28;20031;-58
2021/07/26 10:29:10;;;;;;;59.25;36.20;;;16.40;66.00;;;;;;5099514;28;20278;-54
2021/07/26 10:31:38;;;;;;;68.47;37.15;;;16.40;66.00;;;;;;5098808;28;20028;-56
2021/07/26 10:34:19;;;;;;;67.57;36.63;;;16.40;66.00;;;;;;5101484;28;20386;-56
2021/07/26 10:36:59;;;;;;;67.70;37.13;;;16.40;66.00;;;;;;5100769;28;20547;-56
2021/07/26 10:39:28;;;;;;;64.63;36.28;;;16.40;66.10;;;;;;5100193;28;20414;-60
2021/07/26 10:41:55;;;;;;;64.43;35.15;;;16.40;66.20;;;;;;5107333;28;20027;-58
2021/07/26 10:44:23;;;;;;;54.53;33.13;;;16.40;66.20;;;;;;5107729;28;20470;-57
2021/07/26 10:47:08;;;;;;;65.60;34.45;;;16.40;66.20;;;;;;5096496;28;20402;-58
2021/07/26 10:49:51;;;;;;;66.50;34.45;;;16.40;66.20;;;;;;5105580;28;20132;-53
2021/07/26 10:52:27;;;;;;;51.92;32.42;;;16.40;66.20;;;;;;5096732;28;20490;-59
2021/07/26 10:55:03;;;;;;;59.03;31.15;;;16.40;66.20;;;;;;5100187;28;20131;-55
2021/07/26 10:57:47;;;;;;;56.63;31.92;;;16.30;66.20;;;;;;5079002;28;20028;-56
2021/07/26 11:00:16;;;;;;;58.30;30.65;;;16.40;66.30;;;;;;5102216;28;20036;-52
2021/07/26 11:02:45;;;;;;;49.30;26.92;;;16.30;66.30;;;;;;5103996;28;20032;-54
2021/07/26 11:05:28;;;;;;;49.47;27.83;;;16.30;66.10;;;;;;5101633;28;20031;-54
2021/07/26 11:08:14;;;;;;;48.88;27.17;;;16.40;66.20;;;;;;5095374;28;20031;-52
2021/07/26 11:10:58;;;;;;;49.65;28.55;;;16.30;66.30;;;;;;5099745;28;20036;-57
2021/07/26 11:13:46;;;;;;;42.83;25.30;;;16.30;66.20;;;;;;5101348;28;20036;-50
2021/07/26 11:16:13;;;;;;;46.15;24.73;;;16.30;66.80;;;;;;5099280;28;20028;-55
2021/07/26 11:18:42;;;;;;;41.78;24.17;;;16.30;66.20;;;;;;5100890;28;20031;-57
2021/07/26 11:21:16;;;;;;;43.70;25.88;;;16.30;66.20;;;;;;5099056;28;20032;-56
2021/07/26 11:23:47;;;;;;;43.25;24.63;;;16.30;66.20;;;;;;5092147;28;20024;-63
2021/07/26 11:26:40;;;;;;;36.10;21.67;;;16.30;66.30;;;;;;5092263;28;20123;-52
2021/07/26 11:29:12;;;;;;;41.33;23.73;;;16.30;66.40;;;;;;5091604;28;20380;-55
2021/07/26 11:31:59;;;;;;;35.08;20.80;;;16.30;66.40;;;;;;5095526;28;20042;-59
2021/07/26 11:34:34;;;;;;;35.78;20.95;;;16.30;66.30;;;;;;5096349;28;20052;-55
2021/07/26 11:37:10;;;;;;;37.85;22.45;;;16.30;66.50;;;;;;5083670;28;20035;-56
2021/07/26 11:39:48;;;;;;;34.30;20.95;;;16.20;66.50;;;;;;5103275;28;20047;-56
2021/07/26 11:42:21;;;;;;;37.00;20.45;;;16.20;66.40;;;;;;5095111;28;20038;-54
2021/07/26 11:44:51;;;;;;;33.72;19.95;;;16.20;66.40;;;;;;5096263;28;20028;-54
2021/07/26 11:47:34;;;;;;;34.85;18.35;;;16.20;66.50;;;;;;5097031;28;20433;-49
2021/07/26 11:50:20;;;;;;;25.85;15.95;;;16.20;66.30;;;;;;5103038;28;20028;-52
2021/07/26 11:52:55;;;;;;;30.75;17.85;;;16.20;67.10;;;;;;5105119;28;20036;-50
2021/07/26 11:55:29;;;;;;;32.55;17.67;;;16.20;66.50;;;;;;5101674;28;20066;-56
2021/07/26 11:58:07;;;;;;;32.20;18.02;;;16.20;66.60;;;;;;5101439;28;20099;-54
2021/07/26 12:00:40;;;;;;;29.40;17.20;;;16.10;66.60;;;;;;5090839;28;20044;-58
2021/07/26 12:03:08;;;;;;;30.90;16.48;;;16.10;66.70;;;;;;5090994;28;20115;-58
2021/07/26 12:05:37;;;;;;;26.63;18.52;;;16.10;66.50;;;;;;5091143;28;20554;-60
2021/07/26 12:08:20;;;;;;;29.90;17.83;;;16.10;66.90;;;;;;5091034;28;20032;-57
2021/07/26 12:10:48;;;;;;;29.13;17.23;;;16.00;66.90;;;;;;5091017;28;20031;-58
2021/07/26 12:13:18;;;;;;;30.63;17.00;;;16.10;66.90;;;;;;5090965;28;20124;-51
2021/07/26 12:15:52;;;;;;;31.52;16.95;;;16.00;67.10;;;;;;5072730;28;20092;-54
2021/07/26 12:18:30;;;;;;;30.92;16.33;;;16.00;67.00;;;;;;5096820;28;20485;-58
2021/07/26 12:20:58;;;;;;;25.48;16.02;;;16.00;67.00;;;;;;5111615;28;20077;-61
2021/07/26 12:23:35;;;;;;;29.23;16.42;;;16.00;67.10;;;;;;5100901;28;20638;-52
2021/07/26 12:26:13;;;;;;;29.02;15.65;;;16.00;67.20;;;;;;5091471;28;20118;-52
2021/07/26 12:28:50;;;;;;;24.98;15.25;;;15.90;67.10;;;;;;5086265;28;20068;-58
2021/07/26 12:31:28;;;;;;;25.13;14.45;;;16.00;67.30;;;;;;5085952;28;20036;-53
2021/07/26 12:34:21;;;;;;;23.77;14.45;;;15.90;67.30;;;;;;5086158;28;20032;-55
2021/07/26 12:36:50;;;;;;;24.92;14.52;;;16.00;67.40;;;;;;5085813;28;20028;-50
2021/07/26 12:39:18;;;;;;;26.10;14.60;;;16.00;67.50;;;;;;5085578;28;20047;-57
2021/07/26 12:41:49;;;;;;;20.45;12.80;;;16.00;67.70;;;;;;5084706;28;20036;-61
2021/07/26 12:44:27;;;;;;;22.10;12.70;;;16.00;67.60;;;;;;5086005;28;20036;-53
2021/07/26 12:46:54;;;;;;;22.48;12.32;;;15.90;67.70;;;;;;5085847;28;20379;-51
2021/07/26 12:49:23;;;;;;;18.20;11.73;;;16.00;67.70;;;;;;5088117;28;20507;-59
2021/07/26 12:51:56;;;;;;;18.73;10.98;;;15.90;67.70;;;;;;5097828;28;20518;-58
2021/07/26 12:54:24;;;;;;;20.10;11.35;;;16.00;67.90;;;;;;5109617;28;20024;-56
2021/07/26 12:56:51;;;;;;;18.05;11.05;;;16.00;68.10;;;;;;5110728;28;20032;-51
2021/07/26 12:59:18;;;;;;;19.88;11.70;;;15.90;67.90;;;;;;5110491;28;20118;-60
2021/07/26 13:01:50;;;;;;;19.13;11.70;;;15.90;68.10;;;;;;5110209;28;20114;-61
2021/07/26 13:04:17;;;;;;;15.93;10.10;;;15.90;68.00;;;;;;5110685;28;20049;-60
2021/07/26 13:06:45;;;;;;;17.98;10.40;;;15.90;68.30;;;;;;5110046;28;20153;-59
2021/07/26 13:09:12;;;;;;;15.45;9.82;;;15.90;68.50;;;;;;5110939;28;20083;-60
2021/07/26 13:11:39;;;;;;;19.08;10.73;;;15.90;68.50;;;;;;5110237;28;20115;-56
2021/07/26 13:14:07;;;;;;;14.25;8.80;;;15.90;68.60;;;;;;5110724;28;20106;-53
2021/07/26 13:16:35;;;;;;;14.50;8.93;;;15.90;68.90;;;;;;5108826;28;20035;-59
2021/07/26 13:19:03;;;;;;;12.85;8.23;;;15.90;68.80;;;;;;5110104;28;20031;-60
2021/07/26 13:21:31;;;;;;;16.65;9.50;;;15.90;68.80;;;;;;5109793;28;20031;-59